Time;durP1;ratioP1;P1;durP2;ratioP2;P2;SDS_P1;SDS_P2;PMS_P1;PMS_P2;Temp;Humidity;BMP_temperature;BMP_pressure;BME280_temperature;BME280_humidity;BME280_pressure;Samples;Min_cycle;Max_cycle;Signal;HPM_P1;HPM_P2
2022/10/11 00:01:08;;;;;;;44.25;27.00;;;;;;;;;;4937413;29;20044;-75
2022/10/11 00:03:53;;;;;;;43.85;26.95;;;;;;;;;;4937859;29;20047;-74
2022/10/11 00:06:42;;;;;;;39.05;26.85;;;;;;;;;;4937057;29;20398;-75
2022/10/11 00:09:27;;;;;;;37.13;26.98;;;;;;;;;;4944053;29;20051;-75
2022/10/11 00:12:13;;;;;;;41.53;27.35;;;;;;;;;;4937523;29;20043;-75
2022/10/11 00:14:59;;;;;;;43.28;26.00;;;;;;;;;;4936995;29;20043;-74
2022/10/11 00:17:44;;;;;;;41.55;26.42;;;;;;;;;;4937551;29;20402;-75
2022/10/11 00:20:30;;;;;;;43.35;26.48;;;;;;;;;;4936903;29;20059;-75
2022/10/11 00:23:15;;;;;;;42.95;27.50;;;;;;;;;;4937242;29;20039;-75
2022/10/11 00:26:03;;;;;;;41.03;27.27;;;;;;;;;;4937925;29;20055;-75
2022/10/11 00:28:50;;;;;;;39.30;26.63;;;;;;;;;;4942153;29;20052;-75
2022/10/11 00:31:36;;;;;;;43.10;27.23;;;;;;;;;;4937108;29;20047;-75
2022/10/11 00:34:21;;;;;;;39.75;26.48;;;;;;;;;;4936647;29;20044;-75
2022/10/11 00:37:07;;;;;;;39.67;27.15;;;;;;;;;;4937017;29;20047;-75
2022/10/11 00:39:53;;;;;;;41.33;27.88;;;;;;;;;;4937056;29;20056;-75
2022/10/11 00:42:39;;;;;;;41.92;27.83;;;;;;;;;;4936563;29;20039;-75
2022/10/11 00:45:30;;;;;;;46.63;28.08;;;;;;;;;;4937015;29;20048;-75
2022/10/11 00:48:22;;;;;;;37.47;27.02;;;;;;;;;;4936819;29;20390;-75
2022/10/11 00:51:24;;;;;;;45.45;28.20;;;;;;;;;;4936891;29;20043;-74
2022/10/11 00:54:14;;;;;;;44.70;28.92;;;;;;;;;;4936849;29;20052;-75
2022/10/11 00:57:04;;;;;;;51.30;27.15;;;;;;;;;;4936288;29;20044;-75
2022/10/11 00:59:52;;;;;;;39.80;27.25;;;;;;;;;;4936845;29;20040;-75
2022/10/11 01:02:39;;;;;;;38.10;26.80;;;;;;;;;;4936410;29;20482;-76
2022/10/11 01:05:25;;;;;;;44.75;27.60;;;;;;;;;;4942808;29;20047;-75
2022/10/11 01:08:11;;;;;;;41.67;28.05;;;;;;;;;;4943007;29;20059;-75
2022/10/11 01:10:57;;;;;;;38.60;26.10;;;;;;;;;;4935989;29;20055;-75
2022/10/11 01:14:09;;;;;;;49.38;28.58;;;;;;;;;;4936508;29;20044;-75
2022/10/11 01:17:20;;;;;;;42.00;26.95;;;;;;;;;;4936185;29;20047;-76
2022/10/11 01:20:21;;;;;;;43.33;27.23;;;;;;;;;;4936961;29;20039;-75
2022/10/11 01:23:24;;;;;;;44.00;26.98;;;;;;;;;;4936413;29;20056;-75
2022/10/11 01:26:38;;;;;;;61.58;29.48;;;;;;;;;;4935905;29;20405;-76
2022/10/11 01:29:52;;;;;;;46.55;26.27;;;;;;;;;;4936477;29;20043;-76
2022/10/11 01:33:11;;;;;;;50.13;28.02;;;;;;;;;;4935790;29;20047;-75
2022/10/11 01:35:59;;;;;;;47.47;27.55;;;;;;;;;;4942824;29;20482;-75
2022/10/11 01:38:57;;;;;;;48.10;28.27;;;;;;;;;;4942386;29;20055;-75
2022/10/11 01:41:46;;;;;;;41.05;27.80;;;;;;;;;;4936582;29;20048;-74
2022/10/11 01:44:33;;;;;;;49.65;27.58;;;;;;;;;;4936084;29;20055;-75
2022/10/11 01:47:23;;;;;;;37.40;26.63;;;;;;;;;;4935774;29;20047;-75
2022/10/11 01:50:41;;;;;;;41.45;27.45;;;;;;;;;;4935908;29;20039;-75
2022/10/11 01:53:42;;;;;;;39.78;28.10;;;;;;;;;;4928552;29;20051;-76
2022/10/11 01:56:52;;;;;;;43.17;27.90;;;;;;;;;;4936637;29;20056;-75
2022/10/11 01:59:42;;;;;;;44.83;27.38;;;;;;;;;;4935801;29;20055;-75
2022/10/11 02:02:27;;;;;;;43.45;26.17;;;;;;;;;;4936655;29;20048;-75
2022/10/11 02:05:48;;;;;;;37.78;26.95;;;;;;;;;;4935919;29;20051;-76
2022/10/11 02:08:54;;;;;;;36.50;25.08;;;;;;;;;;4941849;29;20043;-74
2022/10/11 02:11:40;;;;;;;39.65;25.15;;;;;;;;;;4942366;29;20051;-74
2022/10/11 02:14:30;;;;;;;36.67;23.98;;;;;;;;;;4936378;29;20043;-74
2022/10/11 02:17:24;;;;;;;42.15;25.27;;;;;;;;;;4945829;29;20489;-75
2022/10/11 02:20:14;;;;;;;39.45;26.30;;;;;;;;;;4939291;29;20039;-75
2022/10/11 02:23:07;;;;;;;38.88;25.05;;;;;;;;;;4945301;29;20394;-75
2022/10/11 02:25:55;;;;;;;45.53;24.88;;;;;;;;;;4939157;29;20043;-75
2022/10/11 02:28:43;;;;;;;38.97;24.27;;;;;;;;;;4937021;29;20506;-76
2022/10/11 02:31:30;;;;;;;45.47;25.42;;;;;;;;;;4938016;29;20043;-75
2022/10/11 02:34:30;;;;;;;42.58;25.60;;;;;;;;;;4938704;29;20048;-75
2022/10/11 02:37:24;;;;;;;44.30;25.42;;;;;;;;;;4937279;29;20055;-75
2022/10/11 02:40:23;;;;;;;36.35;24.90;;;;;;;;;;4938816;29;20051;-75
2022/10/11 02:43:17;;;;;;;44.67;29.70;;;;;;;;;;4938872;29;20055;-75
2022/10/11 02:46:05;;;;;;;36.17;26.15;;;;;;;;;;4939198;29;20393;-75
2022/10/11 02:48:51;;;;;;;41.60;28.17;;;;;;;;;;4945446;29;20044;-75
2022/10/11 02:51:38;;;;;;;44.63;29.15;;;;;;;;;;4938108;29;20043;-75
2022/10/11 02:54:25;;;;;;;52.38;31.33;;;;;;;;;;4938936;29;20401;-75
2022/10/11 02:57:10;;;;;;;38.97;26.65;;;;;;;;;;4938441;29;20051;-75
2022/10/11 02:59:55;;;;;;;41.63;27.48;;;;;;;;;;4945213;29;20048;-75
2022/10/11 03:02:41;;;;;;;37.63;25.58;;;;;;;;;;4938869;29;20063;-76
2022/10/11 03:05:27;;;;;;;40.67;26.92;;;;;;;;;;4938513;29;20048;-76
2022/10/11 03:08:14;;;;;;;43.38;27.35;;;;;;;;;;4938634;29;20051;-75
2022/10/11 03:11:00;;;;;;;37.42;25.20;;;;;;;;;;4944724;29;20075;-76
2022/10/11 03:13:45;;;;;;;40.38;25.40;;;;;;;;;;4944574;29;20055;-75
2022/10/11 03:16:31;;;;;;;48.63;26.40;;;;;;;;;;4938773;29;20051;-75
2022/10/11 03:19:17;;;;;;;55.65;27.77;;;;;;;;;;4938098;29;20044;-75
2022/10/11 03:22:02;;;;;;;38.60;25.98;;;;;;;;;;4944781;29;20047;-76
2022/10/11 03:24:48;;;;;;;33.20;23.77;;;;;;;;;;4938532;29;20477;-75
2022/10/11 03:27:33;;;;;;;37.15;25.15;;;;;;;;;;4937081;29;20055;-76
2022/10/11 03:30:19;;;;;;;38.08;25.50;;;;;;;;;;4944772;29;20044;-76
2022/10/11 03:33:05;;;;;;;37.17;26.10;;;;;;;;;;4937771;29;20493;-76
2022/10/11 03:35:50;;;;;;;40.53;25.85;;;;;;;;;;4944453;29;20044;-76
2022/10/11 03:38:36;;;;;;;37.70;25.60;;;;;;;;;;4944894;29;20047;-76
2022/10/11 03:41:21;;;;;;;40.13;25.08;;;;;;;;;;4938139;29;20458;-76
2022/10/11 03:44:07;;;;;;;35.72;24.88;;;;;;;;;;4937957;29;20051;-75
2022/10/11 03:46:52;;;;;;;43.00;25.25;;;;;;;;;;4937327;29;20060;-75
2022/10/11 03:49:37;;;;;;;46.17;28.48;;;;;;;;;;4937049;29;20043;-75
2022/10/11 03:52:23;;;;;;;43.63;27.30;;;;;;;;;;4937947;29;20044;-75
2022/10/11 03:55:08;;;;;;;38.50;26.15;;;;;;;;;;4937204;29;20043;-75
2022/10/11 03:57:54;;;;;;;38.83;26.45;;;;;;;;;;4937694;29;20047;-75
2022/10/11 04:00:39;;;;;;;46.20;26.77;;;;;;;;;;4937498;29;20060;-76
2022/10/11 04:03:25;;;;;;;44.90;25.38;;;;;;;;;;4937211;29;20055;-76
2022/10/11 04:06:11;;;;;;;37.15;25.30;;;;;;;;;;4944048;29;20055;-75
2022/10/11 04:08:56;;;;;;;37.50;24.92;;;;;;;;;;4943525;29;20070;-75
2022/10/11 04:11:42;;;;;;;42.55;25.63;;;;;;;;;;4943897;29;20048;-75
2022/10/11 04:14:27;;;;;;;35.05;24.23;;;;;;;;;;4937296;29;20431;-75
2022/10/11 04:17:13;;;;;;;44.38;26.17;;;;;;;;;;4936757;29;20096;-75
2022/10/11 04:19:58;;;;;;;39.20;25.00;;;;;;;;;;4937419;29;20059;-75
2022/10/11 04:22:44;;;;;;;37.25;25.20;;;;;;;;;;4936675;29;20051;-75
2022/10/11 04:25:30;;;;;;;49.70;32.28;;;;;;;;;;4943410;29;20409;-76
2022/10/11 04:28:15;;;;;;;47.80;30.30;;;;;;;;;;4937411;29;20518;-74
2022/10/11 04:31:03;;;;;;;40.50;28.77;;;;;;;;;;4936370;29;20043;-75
2022/10/11 04:33:49;;;;;;;39.70;26.80;;;;;;;;;;4937143;29;20043;-75
2022/10/11 04:36:34;;;;;;;42.17;25.88;;;;;;;;;;4936560;29;20043;-75
2022/10/11 04:39:20;;;;;;;39.30;26.15;;;;;;;;;;4943161;29;20043;-75
2022/10/11 04:42:05;;;;;;;50.90;31.63;;;;;;;;;;4937122;29;20052;-75
2022/10/11 04:44:50;;;;;;;43.88;28.13;;;;;;;;;;4935812;29;20047;-74
2022/10/11 04:47:35;;;;;;;44.65;28.65;;;;;;;;;;4937244;29;20047;-75
2022/10/11 04:50:21;;;;;;;44.55;28.15;;;;;;;;;;4936314;29;20047;-77
2022/10/11 04:53:07;;;;;;;42.17;28.60;;;;;;;;;;4942542;29;20044;-74
2022/10/11 04:55:56;;;;;;;46.35;29.98;;;;;;;;;;4936698;29;20043;-74
2022/10/11 04:58:43;;;;;;;50.13;29.00;;;;;;;;;;4935909;29;20052;-75
2022/10/11 05:01:28;;;;;;;49.97;29.85;;;;;;;;;;4936868;29;20051;-75
2022/10/11 05:04:14;;;;;;;38.78;26.13;;;;;;;;;;4936631;29;20039;-77
2022/10/11 05:06:59;;;;;;;41.20;26.70;;;;;;;;;;4936548;29;20052;-77
2022/10/11 05:09:45;;;;;;;40.13;26.67;;;;;;;;;;4942945;29;20401;-76
2022/10/11 05:12:31;;;;;;;47.00;28.50;;;;;;;;;;4935762;29;20047;-76
2022/10/11 05:15:16;;;;;;;55.03;32.03;;;;;;;;;;4943012;29;20048;-76
2022/10/11 05:18:02;;;;;;;56.17;32.85;;;;;;;;;;4936754;29;20489;-76
2022/10/11 05:20:47;;;;;;;56.85;34.20;;;;;;;;;;4935778;29;20047;-75
2022/10/11 05:23:35;;;;;;;65.97;35.40;;;;;;;;;;4936334;29;20048;-75
2022/10/11 05:26:20;;;;;;;59.42;34.30;;;;;;;;;;4935770;29;20052;-76
2022/10/11 05:29:05;;;;;;;76.68;40.33;;;;;;;;;;4935612;29;20048;-75
2022/10/11 05:31:51;;;;;;;94.25;45.70;;;;;;;;;;4935676;29;20047;-76
2022/10/11 05:34:36;;;;;;;67.75;37.10;;;;;;;;;;4935050;29;20047;-76
2022/10/11 05:37:23;;;;;;;65.32;36.65;;;;;;;;;;4936221;29;20485;-76
2022/10/11 05:40:09;;;;;;;64.28;36.60;;;;;;;;;;4935995;29;20052;-76
2022/10/11 05:42:55;;;;;;;109.82;54.70;;;;;;;;;;4942348;29;20052;-77
2022/10/11 05:45:42;;;;;;;56.88;34.67;;;;;;;;;;4936053;29;20048;-75
2022/10/11 05:48:27;;;;;;;59.22;37.83;;;;;;;;;;4942028;29;20043;-76
2022/10/11 05:51:13;;;;;;;64.40;39.70;;;;;;;;;;4939845;29;20048;-76
2022/10/11 05:53:58;;;;;;;65.28;36.15;;;;;;;;;;4939754;29;20055;-75
2022/10/11 05:56:44;;;;;;;65.80;36.92;;;;;;;;;;4939312;29;20044;-74
2022/10/11 05:59:30;;;;;;;60.33;36.90;;;;;;;;;;4946256;29;20056;-76
2022/10/11 06:02:16;;;;;;;59.75;36.42;;;;;;;;;;4945838;29;20047;-76
2022/10/11 06:05:02;;;;;;;62.83;35.42;;;;;;;;;;4940101;29;20059;-75
2022/10/11 06:07:48;;;;;;;57.40;35.85;;;;;;;;;;4946134;29;20051;-75
2022/10/11 06:10:34;;;;;;;59.53;35.15;;;;;;;;;;4939117;29;20397;-76
2022/10/11 06:13:19;;;;;;;56.33;35.05;;;;;;;;;;4939363;29;20047;-76
2022/10/11 06:16:06;;;;;;;73.05;42.20;;;;;;;;;;4939356;29;20047;-77
2022/10/11 06:18:55;;;;;;;57.00;34.88;;;;;;;;;;4939510;29;20044;-77
2022/10/11 06:21:40;;;;;;;56.75;34.72;;;;;;;;;;4939583;29;20048;-76
2022/10/11 06:24:26;;;;;;;53.67;35.13;;;;;;;;;;4938739;29;20397;-77
2022/10/11 06:27:11;;;;;;;56.63;33.97;;;;;;;;;;4939704;29;20048;-76
2022/10/11 06:29:57;;;;;;;63.28;37.20;;;;;;;;;;4945545;29;20502;-77
2022/10/11 06:32:42;;;;;;;60.75;35.28;;;;;;;;;;4938950;29;20397;-77
2022/10/11 06:35:28;;;;;;;62.70;37.10;;;;;;;;;;4939254;29;20043;-77
2022/10/11 06:38:14;;;;;;;56.42;35.03;;;;;;;;;;4938485;29;20044;-76
2022/10/11 06:41:23;;;;;;;55.33;34.80;;;;;;;;;;4939520;29;20051;-77
2022/10/11 06:44:10;;;;;;;45.40;29.50;;;;;;;;;;4939232;29;20047;-75
2022/10/11 06:46:55;;;;;;;55.00;29.25;;;;;;;;;;4938892;29;20047;-76
2022/10/11 06:49:41;;;;;;;46.80;29.45;;;;;;;;;;4938835;29;20485;-77
2022/10/11 06:52:27;;;;;;;44.53;26.83;;;;;;;;;;4938315;29;20393;-76
2022/10/11 06:55:13;;;;;;;42.70;29.15;;;;;;;;;;4944351;29;20059;-76
2022/10/11 06:57:58;;;;;;;66.40;34.58;;;;;;;;;;4938801;29;20047;-75
2022/10/11 07:00:43;;;;;;;74.32;36.88;;;;;;;;;;4938085;29;20039;-75
2022/10/11 07:03:29;;;;;;;57.83;34.97;;;;;;;;;;4939046;29;20051;-76
2022/10/11 07:06:18;;;;;;;56.78;34.60;;;;;;;;;;4938087;29;20047;-76
2022/10/11 07:09:04;;;;;;;69.00;34.30;;;;;;;;;;4944941;29;20393;-75
2022/10/11 07:11:50;;;;;;;61.13;34.47;;;;;;;;;;4938513;29;20047;-76
2022/10/11 07:14:35;;;;;;;51.72;33.10;;;;;;;;;;4943262;29;20056;-75
2022/10/11 07:17:21;;;;;;;50.22;31.65;;;;;;;;;;4945192;29;20047;-75
2022/10/11 07:20:07;;;;;;;58.83;31.42;;;;;;;;;;4938005;29;20055;-75
2022/10/11 07:22:52;;;;;;;51.58;31.75;;;;;;;;;;4944786;29;20059;-76
2022/10/11 07:25:38;;;;;;;58.33;32.83;;;;;;;;;;4944584;29;20402;-74
2022/10/11 07:28:24;;;;;;;58.38;32.00;;;;;;;;;;4937865;29;20043;-77
2022/10/11 07:31:20;;;;;;;54.78;31.67;;;;;;;;;;4938361;29;20048;-76
2022/10/11 07:34:06;;;;;;;64.63;32.17;;;;;;;;;;4937750;29;20051;-76
2022/10/11 07:36:51;;;;;;;55.55;31.13;;;;;;;;;;4938692;29;20398;-75
2022/10/11 07:39:37;;;;;;;64.90;36.97;;;;;;;;;;4938213;29;20048;-77
2022/10/11 07:42:22;;;;;;;54.90;33.40;;;;;;;;;;4943977;29;20044;-77
2022/10/11 07:45:08;;;;;;;46.20;29.50;;;;;;;;;;4938219;29;20052;-77
2022/10/11 07:47:55;;;;;;;44.15;26.88;;;;;;;;;;4937947;29;20048;-75
2022/10/11 07:50:40;;;;;;;40.28;26.25;;;;;;;;;;4937071;29;20052;-76
2022/10/11 07:53:25;;;;;;;43.20;28.77;;;;;;;;;;4924191;29;20486;-75
2022/10/11 07:56:13;;;;;;;67.10;40.08;;;;;;;;;;4938102;29;20048;-75
2022/10/11 07:59:02;;;;;;;104.60;55.50;;;;;;;;;;4938177;29;20048;-74
2022/10/11 08:01:47;;;;;;;77.43;40.90;;;;;;;;;;4938259;29;20043;-75
2022/10/11 08:04:33;;;;;;;43.47;29.70;;;;;;;;;;4944006;29;20047;-75
2022/10/11 08:07:18;;;;;;;39.10;27.15;;;;;;;;;;4937941;29;20048;-74
2022/10/11 08:10:07;;;;;;;60.20;36.55;;;;;;;;;;4937688;29;20039;-73
2022/10/11 08:12:53;;;;;;;37.38;25.02;;;;;;;;;;4936888;29;20047;-75
2022/10/11 08:15:38;;;;;;;48.50;30.95;;;;;;;;;;4937034;29;20052;-73
2022/10/11 08:18:24;;;;;;;63.38;32.80;;;;;;;;;;4936728;29;20044;-74
2022/10/11 08:21:13;;;;;;;53.75;31.20;;;;;;;;;;4937598;29;20052;-74
2022/10/11 08:24:01;;;;;;;75.63;36.58;;;;;;;;;;4937078;29;20043;-75
2022/10/11 08:26:47;;;;;;;51.22;32.20;;;;;;;;;;4937288;29;20405;-74
2022/10/11 08:29:33;;;;;;;44.33;25.52;;;;;;;;;;4942402;29;20051;-74
2022/10/11 08:32:18;;;;;;;37.90;24.55;;;;;;;;;;4936557;29;20486;-77
2022/10/11 08:35:04;;;;;;;38.85;23.65;;;;;;;;;;4936962;29;20060;-74
2022/10/11 08:37:50;;;;;;;42.88;24.55;;;;;;;;;;4936987;29;20039;-75
2022/10/11 08:40:35;;;;;;;41.17;21.85;;;;;;;;;;4936650;29;20051;-75
2022/10/11 08:43:43;;;;;;;34.13;21.95;;;;;;;;;;4936746;29;20048;-75
2022/10/11 08:46:32;;;;;;;42.78;24.45;;;;;;;;;;4935980;29;20087;-76
2022/10/11 08:49:23;;;;;;;43.17;23.52;;;;;;;;;;4936803;29;20043;-74
2022/10/11 08:52:22;;;;;;;34.63;19.90;;;;;;;;;;4936857;29;20048;-76
2022/10/11 08:55:23;;;;;;;33.30;19.45;;;;;;;;;;4936300;29;20047;-76
2022/10/11 08:58:15;;;;;;;42.35;21.95;;;;;;;;;;4936710;29;20486;-75
2022/10/11 09:01:01;;;;;;;35.83;21.10;;;;;;;;;;4942526;29;20044;-75
2022/10/11 09:03:48;;;;;;;45.20;24.65;;;;;;;;;;4942963;29;20398;-75
2022/10/11 09:06:55;;;;;;;38.67;20.55;;;;;;;;;;4936719;29;20465;-74
2022/10/11 09:09:54;;;;;;;35.50;20.52;;;;;;;;;;4936649;29;20462;-75
2022/10/11 09:12:39;;;;;;;35.88;19.20;;;;;;;;;;4936942;29;20047;-75
2022/10/11 09:15:51;;;;;;;30.10;18.20;;;;;;;;;;4935665;29;20494;-74
2022/10/11 09:18:53;;;;;;;30.90;14.52;;;;;;;;;;4936334;29;20048;-75
2022/10/11 09:21:53;;;;;;;31.52;13.82;;;;;;;;;;4936021;29;20482;-75
2022/10/11 09:24:53;;;;;;;35.83;16.52;;;;;;;;;;4936511;29;20052;-74
2022/10/11 09:28:30;;;;;;;20.55;12.77;;;;;;;;;;4936566;29;20405;-75
2022/10/11 09:31:16;;;;;;;16.67;9.00;;;;;;;;;;4878701;29;20059;-73
2022/10/11 09:34:11;;;;;;;15.23;9.35;;;;;;;;;;4936287;29;20043;-74
2022/10/11 09:37:08;;;;;;;20.38;10.13;;;;;;;;;;4935769;29;20409;-76
2022/10/11 09:40:12;;;;;;;21.55;11.20;;;;;;;;;;4936063;29;20052;-76
2022/10/11 09:42:58;;;;;;;19.70;10.40;;;;;;;;;;4942421;29;20498;-73
2022/10/11 09:45:45;;;;;;;18.75;9.38;;;;;;;;;;4936161;29;20056;-74
2022/10/11 09:48:39;;;;;;;20.17;9.77;;;;;;;;;;4936575;29;20039;-75
2022/10/11 09:51:26;;;;;;;21.90;9.98;;;;;;;;;;4935408;29;20047;-81
2022/10/11 09:54:11;;;;;;;20.30;9.75;;;;;;;;;;4935922;29;20047;-78
2022/10/11 09:56:57;;;;;;;17.85;9.98;;;;;;;;;;4935666;29;20394;-75
2022/10/11 10:00:19;;;;;;;14.23;9.65;;;;;;;;;;4935741;29;20505;-75
2022/10/11 10:03:04;;;;;;;17.10;10.60;;;;;;;;;;4942311;29;20047;-75
2022/10/11 10:06:14;;;;;;;20.00;9.57;;;;;;;;;;4935522;29;20063;-74
2022/10/11 10:09:18;;;;;;;15.75;9.27;;;;;;;;;;4942519;29;20044;-74
2022/10/11 10:12:11;;;;;;;20.38;9.70;;;;;;;;;;4935556;29;20052;-75
2022/10/11 10:15:16;;;;;;;14.95;9.35;;;;;;;;;;4935686;29;20048;-76
2022/10/11 10:18:09;;;;;;;18.00;9.55;;;;;;;;;;4935635;29;20044;-75
2022/10/11 10:20:58;;;;;;;14.25;9.23;;;;;;;;;;4935854;29;20043;-73
2022/10/11 10:23:43;;;;;;;17.05;9.60;;;;;;;;;;4936177;29;20082;-75
2022/10/11 10:26:30;;;;;;;17.63;9.88;;;;;;;;;;4935894;29;20490;-74
2022/10/11 10:29:17;;;;;;;26.65;9.65;;;;;;;;;;4942364;29;20047;-76
2022/10/11 10:32:20;;;;;;;23.33;10.55;;;;;;;;;;4941676;29;20055;-75
2022/10/11 10:35:28;;;;;;;16.90;10.07;;;;;;;;;;4935592;29;20047;-75
2022/10/11 10:38:20;;;;;;;20.63;10.80;;;;;;;;;;4945874;29;20389;-74
2022/10/11 10:41:11;;;;;;;22.25;10.60;;;;;;;;;;4944860;29;20051;-74
2022/10/11 10:43:59;;;;;;;20.65;11.38;;;;;;;;;;4939440;29;20051;-75
2022/10/11 10:46:51;;;;;;;20.80;10.30;;;;;;;;;;4944942;29;20047;-74
2022/10/11 10:49:58;;;;;;;20.58;9.63;;;;;;;;;;4944205;29;20044;-76
2022/10/11 10:53:18;;;;;;;20.30;12.27;;;;;;;;;;4945469;29;20055;-75
2022/10/11 10:56:06;;;;;;;53.67;25.27;;;;;;;;;;4945051;29;20059;-74
2022/10/11 10:59:28;;;;;;;24.95;14.18;;;;;;;;;;4939088;29;20051;-74
2022/10/11 11:02:22;;;;;;;15.90;10.70;;;;;;;;;;4937831;29;20051;-74
2022/10/11 11:05:20;;;;;;;15.95;9.70;;;;;;;;;;4945086;29;20047;-74
2022/10/11 11:08:11;;;;;;;19.75;11.55;;;;;;;;;;4938740;29;20055;-74
2022/10/11 11:11:25;;;;;;;21.20;10.75;;;;;;;;;;4944880;29;20039;-74
2022/10/11 11:14:30;;;;;;;23.77;10.73;;;;;;;;;;4938403;29;20043;-75
2022/10/11 11:17:42;;;;;;;25.65;11.40;;;;;;;;;;4937442;29;20114;-75
2022/10/11 11:20:40;;;;;;;20.92;11.57;;;;;;;;;;4944863;29;20055;-75
2022/10/11 11:23:34;;;;;;;22.67;11.35;;;;;;;;;;4937866;29;20051;-74
2022/10/11 11:26:43;;;;;;;;;;;;;;;;;;4938870;29;20047;-75
2022/10/11 11:29:54;;;;;;;21.02;10.93;;;;;;;;;;4937869;29;19914;-74
2022/10/11 11:32:43;;;;;;;27.33;14.02;;;;;;;;;;4943598;29;20044;-75
2022/10/11 11:35:44;;;;;;;21.67;11.60;;;;;;;;;;4944596;29;20048;-75
2022/10/11 11:38:45;;;;;;;31.48;14.52;;;;;;;;;;4937711;29;20393;-75
2022/10/11 11:41:42;;;;;;;21.83;12.00;;;;;;;;;;4938071;29;20048;-74
2022/10/11 11:44:37;;;;;;;21.52;12.32;;;;;;;;;;4944256;29;20040;-74
2022/10/11 11:47:37;;;;;;;22.65;12.40;;;;;;;;;;4937817;29;20044;-74
2022/10/11 11:50:24;;;;;;;23.17;12.77;;;;;;;;;;4937237;29;20043;-75
2022/10/11 11:53:30;;;;;;;21.17;11.13;;;;;;;;;;4937818;29;20044;-75
2022/10/11 11:56:49;;;;;;;26.50;13.48;;;;;;;;;;4937802;29;20069;-75
2022/10/11 11:59:41;;;;;;;25.08;14.55;;;;;;;;;;4937091;29;20383;-74
2022/10/11 12:02:54;;;;;;;23.02;11.60;;;;;;;;;;4937587;29;20048;-75
2022/10/11 12:06:18;;;;;;;17.92;12.00;;;;;;;;;;4936627;29;20039;-74
2022/10/11 12:09:16;;;;;;;24.30;14.15;;;;;;;;;;4937355;29;20056;-75
2022/10/11 12:12:04;;;;;;;31.20;17.25;;;;;;;;;;4936819;29;20047;-75
2022/10/11 12:14:51;;;;;;;20.15;13.63;;;;;;;;;;4943283;29;20043;-74
2022/10/11 12:17:55;;;;;;;28.27;17.15;;;;;;;;;;4937291;29;20052;-74
2022/10/11 12:20:42;;;;;;;18.27;11.40;;;;;;;;;;4936826;29;20494;-74
2022/10/11 12:23:28;;;;;;;17.42;11.05;;;;;;;;;;4937400;29;20051;-74
2022/10/11 12:26:39;;;;;;;19.08;10.52;;;;;;;;;;4936799;29;20393;-74
2022/10/11 12:29:40;;;;;;;21.33;10.73;;;;;;;;;;4936936;29;20055;-75
2022/10/11 12:32:35;;;;;;;16.33;10.02;;;;;;;;;;4936969;29;20060;-75
2022/10/11 12:35:30;;;;;;;12.77;8.95;;;;;;;;;;4935935;29;20051;-75
2022/10/11 12:38:21;;;;;;;18.60;10.05;;;;;;;;;;4943311;29;20047;-74
2022/10/11 12:41:12;;;;;;;15.38;9.55;;;;;;;;;;4936372;29;20047;-74
2022/10/11 12:44:26;;;;;;;17.77;9.30;;;;;;;;;;4936901;29;20052;-75
2022/10/11 12:47:34;;;;;;;18.23;8.93;;;;;;;;;;4936724;29;20056;-76
2022/10/11 12:50:39;;;;;;;18.05;9.98;;;;;;;;;;4936550;29;20401;-74
2022/10/11 12:53:37;;;;;;;15.43;9.63;;;;;;;;;;4936588;29;20052;-75
2022/10/11 12:56:36;;;;;;;18.00;10.65;;;;;;;;;;4942242;29;20044;-74
2022/10/11 12:59:24;;;;;;;16.52;9.75;;;;;;;;;;4936138;29;20051;-76
2022/10/11 13:02:41;;;;;;;16.58;9.95;;;;;;;;;;4935192;29;20047;-75
2022/10/11 13:05:44;;;;;;;15.50;9.93;;;;;;;;;;4940899;29;20052;-75
2022/10/11 13:08:33;;;;;;;20.45;10.63;;;;;;;;;;4936639;29;20052;-73
2022/10/11 13:11:23;;;;;;;17.05;10.23;;;;;;;;;;4942307;29;20048;-74
2022/10/11 13:14:15;;;;;;;20.15;10.25;;;;;;;;;;4936013;29;20394;-76
2022/10/11 13:17:01;;;;;;;17.35;10.73;;;;;;;;;;4935627;29;20044;-74
2022/10/11 13:19:57;;;;;;;18.25;10.90;;;;;;;;;;4937862;29;20047;-77
2022/10/11 13:22:46;;;;;;;19.95;10.70;;;;;;;;;;4931038;29;20051;-74
2022/10/11 13:25:36;;;;;;;20.10;10.65;;;;;;;;;;4935190;29;20048;-74
2022/10/11 13:28:22;;;;;;;18.67;11.00;;;;;;;;;;4936269;29;20398;-73
2022/10/11 13:31:08;;;;;;;19.30;11.65;;;;;;;;;;4942076;29;20047;-75
2022/10/11 13:33:57;;;;;;;16.00;11.15;;;;;;;;;;4942388;29;20044;-74
2022/10/11 13:36:43;;;;;;;16.27;10.45;;;;;;;;;;4935987;29;20043;-75
2022/10/11 13:39:34;;;;;;;21.85;10.50;;;;;;;;;;4935560;29;20486;-73
2022/10/11 13:42:26;;;;;;;21.35;11.68;;;;;;;;;;4936121;29;20051;-74
2022/10/11 13:45:15;;;;;;;19.05;12.75;;;;;;;;;;4935539;29;20489;-73
2022/10/11 13:48:00;;;;;;;19.90;13.02;;;;;;;;;;4942371;29;20051;-74
2022/10/11 13:51:15;;;;;;;26.20;12.88;;;;;;;;;;4935448;29;20067;-73
2022/10/11 13:54:05;;;;;;;31.27;12.75;;;;;;;;;;4935481;29;20055;-74
2022/10/11 13:56:53;;;;;;;23.15;12.80;;;;;;;;;;4935939;29;20051;-73
2022/10/11 13:59:42;;;;;;;20.75;12.25;;;;;;;;;;4935387;29;20048;-74
2022/10/11 14:02:29;;;;;;;24.73;11.48;;;;;;;;;;4936023;29;20039;-74
2022/10/11 14:05:28;;;;;;;25.63;12.38;;;;;;;;;;4935349;29;20043;-75
2022/10/11 14:08:22;;;;;;;18.58;12.57;;;;;;;;;;4935796;29;20055;-74
2022/10/11 14:11:10;;;;;;;24.60;12.40;;;;;;;;;;4937622;29;20047;-73
2022/10/11 14:13:56;;;;;;;24.50;11.65;;;;;;;;;;4944737;29;20059;-74
2022/10/11 14:16:54;;;;;;;18.65;11.68;;;;;;;;;;4937521;29;20044;-74
2022/10/11 14:19:41;;;;;;;20.00;12.63;;;;;;;;;;4938339;29;20040;-75
2022/10/11 14:22:26;;;;;;;20.27;12.18;;;;;;;;;;4937425;29;20056;-76
2022/10/11 14:25:12;;;;;;;22.02;13.00;;;;;;;;;;4944311;29;20044;-74
2022/10/11 14:27:58;;;;;;;20.70;13.15;;;;;;;;;;4938498;29;20047;-73
2022/10/11 14:30:43;;;;;;;24.52;13.23;;;;;;;;;;4938908;29;20497;-73
2022/10/11 14:33:28;;;;;;;25.10;14.35;;;;;;;;;;4945472;29;20039;-74
2022/10/11 14:36:14;;;;;;;33.00;17.08;;;;;;;;;;4944867;29;20401;-75
2022/10/11 14:38:59;;;;;;;36.65;18.25;;;;;;;;;;4945328;29;20056;-74
2022/10/11 14:41:46;;;;;;;29.60;16.55;;;;;;;;;;4938514;29;20413;-75
2022/10/11 14:44:31;;;;;;;35.75;17.50;;;;;;;;;;4944795;29;20409;-74
2022/10/11 14:47:17;;;;;;;30.92;18.33;;;;;;;;;;4943847;29;20477;-74
2022/10/11 14:50:46;;;;;;;31.98;16.40;;;;;;;;;;4936310;29;20043;-74
2022/10/11 14:53:31;;;;;;;29.50;17.00;;;;;;;;;;4944090;29;20049;-74
2022/10/11 14:56:17;;;;;;;25.50;16.35;;;;;;;;;;4944317;29;20047;-73
2022/10/11 14:59:03;;;;;;;39.60;18.30;;;;;;;;;;4938414;29;20048;-74
2022/10/11 15:01:52;;;;;;;27.60;17.73;;;;;;;;;;4938682;29;20048;-74
2022/10/11 15:04:38;;;;;;;35.08;21.52;;;;;;;;;;4938034;29;20055;-74
2022/10/11 15:07:23;;;;;;;40.15;21.42;;;;;;;;;;4944919;29;20450;-74
2022/10/11 15:10:34;;;;;;;28.90;19.33;;;;;;;;;;4938016;29;20477;-74
2022/10/11 15:13:21;;;;;;;32.45;21.42;;;;;;;;;;4943710;29;20378;-74
2022/10/11 15:16:06;;;;;;;35.53;22.08;;;;;;;;;;4938011;29;20047;-74
2022/10/11 15:18:52;;;;;;;38.10;22.05;;;;;;;;;;4937783;29;20052;-73
2022/10/11 15:21:37;;;;;;;37.00;22.88;;;;;;;;;;4938229;29;20043;-75
2022/10/11 15:24:23;;;;;;;47.17;27.58;;;;;;;;;;4937556;29;20481;-75
2022/10/11 15:27:09;;;;;;;47.88;29.10;;;;;;;;;;4938224;29;20048;-76
2022/10/11 15:29:54;;;;;;;57.42;31.80;;;;;;;;;;4937979;29;20044;-75
2022/10/11 15:32:39;;;;;;;52.67;32.35;;;;;;;;;;4937534;29;20482;-75
2022/10/11 15:35:26;;;;;;;60.00;33.53;;;;;;;;;;4938049;29;20048;-76
2022/10/11 15:38:21;;;;;;;59.38;34.63;;;;;;;;;;4944188;29;20091;-75
2022/10/11 15:41:07;;;;;;;57.03;34.42;;;;;;;;;;4944369;29;20040;-75
2022/10/11 15:43:52;;;;;;;57.90;34.28;;;;;;;;;;4944312;29;20052;-76
2022/10/11 15:46:40;;;;;;;59.88;34.28;;;;;;;;;;4936900;29;20401;-76
2022/10/11 15:49:25;;;;;;;62.95;33.80;;;;;;;;;;4937872;29;20198;-75
2022/10/11 15:52:10;;;;;;;52.65;33.67;;;;;;;;;;4937877;29;20051;-75
2022/10/11 15:54:56;;;;;;;63.10;37.45;;;;;;;;;;4943869;29;20095;-74
2022/10/11 15:57:42;;;;;;;78.95;40.38;;;;;;;;;;4937666;29;20044;-74
2022/10/11 16:00:28;;;;;;;65.75;35.88;;;;;;;;;;4937214;29;20044;-75
2022/10/11 16:03:16;;;;;;;63.70;34.92;;;;;;;;;;4938173;29;20047;-74
2022/10/11 16:06:01;;;;;;;66.07;37.25;;;;;;;;;;4943471;29;20051;-78
2022/10/11 16:08:47;;;;;;;75.63;42.65;;;;;;;;;;4936886;29;20051;-74
2022/10/11 16:11:33;;;;;;;73.13;42.28;;;;;;;;;;4937344;29;20051;-75
2022/10/11 16:14:18;;;;;;;73.75;42.88;;;;;;;;;;4937109;29;20043;-74
2022/10/11 16:17:04;;;;;;;79.43;42.65;;;;;;;;;;4937284;29;20051;-74
2022/10/11 16:19:50;;;;;;;75.50;40.50;;;;;;;;;;4937269;29;20043;-74
2022/10/11 16:22:35;;;;;;;80.78;41.15;;;;;;;;;;4936630;29;20044;-74
2022/10/11 16:25:22;;;;;;;88.75;45.58;;;;;;;;;;4936648;29;20047;-79
2022/10/11 16:28:11;;;;;;;84.20;43.38;;;;;;;;;;4936384;29;20044;-77
2022/10/11 16:30:57;;;;;;;102.65;48.45;;;;;;;;;;4943654;29;20055;-78
2022/10/11 16:33:46;;;;;;;95.15;52.53;;;;;;;;;;4935466;29;20060;-77
2022/10/11 16:36:35;;;;;;;96.97;52.25;;;;;;;;;;4936031;29;20417;-76